Preview of NWS' New Version of Forecast
This preview is not operational and should not be used for support decisions.

Terminal Aerodrome Forecast (TAF)

Issued by National Weather Service (NWS)

                            
224 
FTUS42 KKEY 210331 AAA
TAFEYW
TAF AMD
KEYW 210331Z 2104/2124 11015G25KT P6SM FEW020 FEW035
     FM210600 11015G25KT P6SM SCT020 SCT040
     FM211300 10015G20KT P6SM FEW020 SCT040=